createdAt,value
2016-04-10T00:00:39.077Z,7.61
2016-04-10T00:01:39.032Z,7.6
2016-04-10T00:02:38.988Z,7.61
2016-04-10T00:03:38.913Z,7.57
2016-04-10T00:04:38.869Z,7.61
2016-04-10T00:05:38.808Z,7.58
2016-04-10T00:06:38.749Z,7.58
2016-04-10T00:07:38.689Z,7.6
2016-04-10T00:08:38.692Z,7.66
2016-04-10T00:09:38.585Z,7.69
2016-04-10T00:10:38.541Z,7.56
2016-04-10T00:11:38.481Z,7.56
2016-04-10T00:12:38.437Z,7.6
2016-04-10T00:13:38.393Z,7.56
2016-04-10T00:14:38.317Z,7.56
2016-04-10T00:15:38.274Z,7.56
2016-04-10T00:16:38.213Z,7.56
2016-04-10T00:17:38.153Z,7.54
2016-04-10T00:18:38.126Z,7.61
2016-04-10T00:19:38.065Z,7.57
2016-04-10T00:20:37.990Z,7.47
2016-04-10T00:21:37.961Z,7.56
2016-04-10T00:22:37.886Z,7.54
2016-04-10T00:23:37.856Z,7.53
2016-04-10T00:24:37.782Z,7.51
2016-04-10T00:25:37.722Z,7.5
2016-04-10T00:26:37.662Z,7.42
2016-04-10T00:27:37.617Z,7.38
2016-04-10T00:28:37.589Z,7.42
2016-04-10T00:29:37.530Z,7.35
2016-04-10T00:30:37.485Z,7.35
2016-04-10T00:31:37.410Z,7.38
2016-04-10T00:32:37.366Z,7.38
2016-04-10T00:33:37.322Z,7.45
2016-04-10T00:34:37.261Z,7.43
2016-04-10T00:35:37.217Z,7.45
2016-04-10T00:36:37.142Z,7.47
2016-04-10T00:37:37.082Z,7.43
2016-04-10T00:38:37.039Z,7.5
2016-04-10T00:39:36.978Z,7.47
2016-04-10T00:40:36.935Z,7.36
2016-04-10T00:41:36.874Z,7.28
2016-04-10T00:42:36.830Z,7.13
2016-04-10T00:43:36.771Z,7.18
2016-04-10T00:44:36.710Z,7.21
2016-04-10T00:45:36.651Z,7.2
2016-04-10T00:46:36.606Z,7.17
2016-04-10T00:47:36.562Z,7.13
2016-04-10T00:48:36.487Z,7.15
2016-04-10T00:49:36.443Z,7.14
2016-04-10T00:50:36.382Z,7.06
2016-04-10T00:51:36.339Z,7.14
2016-04-10T00:52:36.279Z,7.05
2016-04-10T00:53:36.235Z,7.14
2016-04-10T00:54:36.175Z,7.1
2016-04-10T00:55:36.115Z,7.05
2016-04-10T00:56:36.055Z,7.02
2016-04-10T00:57:35.995Z,6.97
2016-04-10T00:58:35.967Z,7
2016-04-10T00:59:35.906Z,6.95
2016-04-10T01:00:35.847Z,6.87
2016-04-10T01:01:35.819Z,6.95
2016-04-10T01:02:35.759Z,6.88
2016-04-10T01:03:35.684Z,7
2016-04-10T01:04:35.624Z,7.14
2016-04-10T01:05:35.606Z,7.15
2016-04-10T01:06:35.600Z,7.13
2016-04-10T01:07:35.581Z,7.11
2016-04-10T01:08:35.562Z,7.17
2016-04-10T01:09:35.541Z,7.15
2016-04-10T01:10:35.537Z,7.15
2016-04-10T01:11:35.491Z,7.15
2016-04-10T01:12:35.446Z,7.14
2016-04-10T01:13:35.386Z,7.17
2016-04-10T01:14:35.371Z,7.14
2016-04-10T01:15:35.319Z,7.23
2016-04-10T01:16:35.265Z,7.05
2016-04-10T01:17:35.226Z,7.05
2016-04-10T01:18:35.170Z,7.25
2016-04-10T01:19:35.163Z,7.29
2016-04-10T01:20:35.059Z,7.24
2016-04-10T01:21:35.016Z,7.17
2016-04-10T01:22:34.990Z,7.14
2016-04-10T01:23:34.932Z,7.11
2016-04-10T01:24:34.874Z,7.13
2016-04-10T01:25:34.832Z,7.15
2016-04-10T01:26:34.772Z,7.11
2016-04-10T01:27:40.760Z,7.18
2016-04-10T01:28:34.670Z,7.18
2016-04-10T01:29:34.595Z,7.13
2016-04-10T01:30:34.551Z,7.06
2016-04-10T01:31:34.508Z,7.15
2016-04-10T01:32:34.448Z,7.11
2016-04-10T01:33:34.390Z,7.2
2016-04-10T01:34:34.329Z,7.24
2016-04-10T01:35:34.270Z,7.31
2016-04-10T01:36:34.257Z,7.29
2016-04-10T01:37:34.118Z,7.25
2016-04-10T01:38:34.138Z,7.38
2016-04-10T01:39:34.062Z,7.33
2016-04-10T01:40:34.002Z,7.25
2016-04-10T01:41:33.942Z,7.23
2016-04-10T01:42:33.898Z,7.24
2016-04-10T01:43:33.854Z,7.17
2016-04-10T01:44:33.778Z,7.17
2016-04-10T01:45:33.735Z,7.15
2016-04-10T01:46:33.675Z,7.17
2016-04-10T01:47:33.615Z,7.06
2016-04-10T01:48:33.587Z,7.18
2016-04-10T01:49:33.526Z,7.25
2016-04-10T01:50:33.467Z,7.35
2016-04-10T01:51:33.422Z,7.25
2016-04-10T01:52:33.706Z,7.14
2016-04-10T01:53:33.303Z,7.11
2016-04-10T01:54:33.242Z,7
2016-04-10T01:55:33.199Z,7.28
2016-04-10T01:56:33.139Z,7.29
2016-04-10T01:57:33.094Z,7.14
2016-04-10T01:58:33.082Z,7.07
2016-04-10T01:59:32.991Z,7.13
2016-04-10T02:00:32.931Z,7.11
2016-04-10T02:01:32.871Z,7.15
2016-04-10T02:02:32.843Z,7.03
2016-04-10T02:03:32.767Z,7.14
2016-04-10T02:04:32.723Z,7.15
2016-04-10T02:05:32.663Z,7.07
2016-04-10T02:06:32.603Z,7.15
2016-04-10T02:07:32.699Z,7.24
2016-04-10T02:08:32.516Z,7.32
2016-04-10T02:09:32.440Z,7.18
2016-04-10T02:10:32.380Z,7.25
2016-04-10T02:11:32.351Z,7.17
2016-04-10T02:12:32.276Z,7.29
2016-04-10T02:13:32.232Z,7.23
2016-04-10T02:14:32.187Z,7.23
2016-04-10T02:15:32.128Z,7.32
2016-04-10T02:16:32.052Z,7.25
2016-04-10T02:17:32.008Z,7.29
2016-04-10T02:18:31.949Z,7.11
2016-04-10T02:19:31.904Z,7.07
2016-04-10T02:20:31.845Z,7.03
2016-04-10T02:21:31.784Z,7.07
2016-04-10T02:22:31.740Z,7.05
2016-04-10T02:23:31.681Z,6.99
2016-04-10T02:24:31.636Z,6.99
2016-04-10T02:25:31.576Z,7.06
2016-04-10T02:26:31.547Z,7.11
2016-04-10T02:27:31.488Z,7.05
2016-04-10T02:28:31.413Z,7.17
2016-04-10T02:29:31.353Z,7.24
2016-04-10T02:30:31.309Z,7.06
2016-04-10T02:31:31.264Z,7.13
2016-04-10T02:32:31.204Z,7.13
2016-04-10T02:33:31.145Z,7.13
2016-04-10T02:34:31.100Z,7.15
2016-04-10T02:35:31.057Z,7.07
2016-04-10T02:36:30.996Z,7.11
2016-04-10T02:37:30.921Z,7.11
2016-04-10T02:38:30.861Z,7.1
2016-04-10T02:39:30.832Z,7.17
2016-04-10T02:40:30.773Z,7.21
2016-04-10T02:41:30.729Z,7.24
2016-04-10T02:42:30.654Z,7.25
2016-04-10T02:43:30.625Z,7.29
2016-04-10T02:44:30.549Z,7.23
2016-04-10T02:45:30.505Z,7.2
2016-04-10T02:46:30.445Z,7.2
2016-04-10T02:47:30.385Z,7.17
2016-04-10T02:48:30.342Z,7.24
2016-04-10T02:49:30.281Z,7.17
2016-04-10T02:50:30.222Z,7.33
2016-04-10T02:51:30.177Z,7.24
2016-04-10T02:52:30.102Z,7.25
2016-04-10T02:53:30.058Z,7.29
2016-04-10T02:54:30.029Z,7.23
2016-04-10T02:55:29.970Z,7.35
2016-04-10T02:56:29.909Z,7.33
2016-04-10T02:57:29.850Z,7.21
2016-04-10T02:58:29.806Z,7.2
2016-04-10T02:59:29.730Z,7.28
2016-04-10T03:00:29.717Z,7.25
2016-04-10T03:01:29.641Z,7.21
2016-04-10T03:02:29.582Z,7.15
2016-04-10T03:03:29.539Z,7.2
2016-04-10T03:04:29.478Z,7.24
2016-04-10T03:05:29.433Z,7.28
2016-04-10T03:06:29.374Z,7.2
2016-04-10T03:07:29.314Z,7.14
2016-04-10T03:08:29.111Z,7.15
2016-04-10T03:09:29.195Z,7.24
2016-04-10T03:10:29.150Z,7.17
2016-04-10T03:11:29.107Z,7.17
2016-04-10T03:12:29.047Z,7.24
2016-04-10T03:13:28.987Z,7.28
2016-04-10T03:14:28.943Z,7.23
2016-04-10T03:15:28.882Z,7.15
2016-04-10T03:16:28.807Z,7.14
2016-04-10T03:17:28.763Z,7.07
2016-04-10T03:18:28.719Z,7.15
2016-04-10T03:19:28.660Z,7.07
2016-04-10T03:20:28.599Z,6.99
2016-04-10T03:21:28.555Z,7.03
2016-04-10T03:22:28.496Z,7.18
2016-04-10T03:23:28.435Z,7.18
2016-04-10T03:24:28.392Z,7.13
2016-04-10T03:25:28.347Z,7.23
2016-04-10T03:26:28.288Z,7.25
2016-04-10T03:27:28.228Z,7.32
2016-04-10T03:28:28.168Z,7.25
2016-04-10T03:29:28.124Z,7.18
2016-04-10T03:30:28.095Z,7.28
2016-04-10T03:31:28.036Z,7.28
2016-04-10T03:32:27.960Z,7.18
2016-04-10T03:33:27.900Z,7.23
2016-04-10T03:34:27.840Z,7.14
2016-04-10T03:35:27.796Z,7.25
2016-04-10T03:36:27.752Z,7.24
2016-04-10T03:37:27.692Z,7.23
2016-04-10T03:38:27.616Z,7.28
2016-04-10T03:39:27.573Z,7.2
2016-04-10T03:40:27.528Z,7.2
2016-04-10T03:41:27.484Z,7.14
2016-04-10T03:42:27.409Z,7.11
2016-04-10T03:43:27.380Z,7.15
2016-04-10T03:44:27.321Z,7.32
2016-04-10T03:45:27.244Z,7.29
2016-04-10T03:46:27.201Z,7.28
2016-04-10T03:47:27.141Z,7.31
2016-04-10T03:48:27.097Z,7.25
2016-04-10T03:49:27.038Z,7.31
2016-04-10T03:50:26.992Z,7.17
2016-04-10T03:51:26.918Z,7.15
2016-04-10T03:52:26.858Z,7.07
2016-04-10T03:53:26.813Z,6.97
2016-04-10T03:54:26.785Z,6.96
2016-04-10T03:55:26.725Z,7.06
2016-04-10T03:56:26.681Z,7.11
2016-04-10T03:57:26.606Z,7.17
2016-04-10T03:58:26.546Z,7.18
2016-04-10T03:59:26.486Z,7.15
2016-04-10T04:00:26.441Z,7.15
2016-04-10T04:01:26.381Z,7.2
2016-04-10T04:02:26.338Z,7.07
2016-04-10T04:03:26.278Z,7.17
2016-04-10T04:04:26.218Z,7.15
2016-04-10T04:05:26.158Z,7.18
2016-04-10T04:06:26.130Z,7.15
2016-04-10T04:07:26.054Z,7.14
2016-04-10T04:08:25.994Z,7.13
2016-04-10T04:09:25.950Z,7.03
2016-04-10T04:10:25.906Z,7.1
2016-04-10T04:11:25.847Z,7.14
2016-04-10T04:12:25.787Z,7.02
2016-04-10T04:13:25.742Z,7.07
2016-04-10T04:14:25.683Z,7.02
2016-04-10T04:15:25.622Z,6.97
2016-04-10T04:16:25.578Z,7
2016-04-10T04:17:25.503Z,6.96
2016-04-10T04:18:25.474Z,6.93
2016-04-10T04:19:25.430Z,6.84
2016-04-10T04:20:25.354Z,6.92
2016-04-10T04:21:25.310Z,6.87
2016-04-10T04:22:25.235Z,6.81
2016-04-10T04:23:25.191Z,6.87
2016-04-10T04:24:25.179Z,6.81
2016-04-10T04:25:25.087Z,6.82
2016-04-10T04:26:25.043Z,6.77
2016-04-10T04:27:24.999Z,6.79
2016-04-10T04:28:24.923Z,6.88
2016-04-10T04:29:24.863Z,6.92
2016-04-10T04:30:24.820Z,6.96
2016-04-10T04:31:24.743Z,6.96
2016-04-10T04:32:24.715Z,6.96
2016-04-10T04:33:24.656Z,7
2016-04-10T04:34:24.596Z,6.96
2016-04-10T04:35:24.551Z,6.84
2016-04-10T04:36:24.523Z,6.92
2016-04-10T04:37:24.431Z,6.84
2016-04-10T04:38:24.403Z,6.89
2016-04-10T04:39:24.531Z,6.87
2016-04-10T04:40:24.283Z,7
2016-04-10T04:41:24.224Z,7.1
2016-04-10T04:42:24.180Z,6.99
2016-04-10T04:43:24.120Z,7.06
2016-04-10T04:44:24.060Z,7.06
2016-04-10T04:45:23.843Z,7.18
2016-04-10T04:46:23.941Z,7.18
2016-04-10T04:47:23.911Z,7.17
2016-04-10T04:48:23.851Z,7.13
2016-04-10T04:49:23.792Z,7.14
2016-04-10T04:50:23.737Z,7.07
2016-04-10T04:51:23.693Z,7.05
2016-04-10T04:52:23.618Z,6.99
2016-04-10T04:53:23.573Z,7.05
2016-04-10T04:54:23.545Z,7.13
2016-04-10T04:55:23.688Z,7.17
2016-04-10T04:56:23.426Z,7.11
2016-04-10T04:57:23.350Z,7.17
2016-04-10T04:58:23.289Z,7.31
2016-04-10T04:59:23.246Z,7.24
2016-04-10T05:00:23.186Z,7.28
2016-04-10T05:01:23.141Z,7.25
2016-04-10T05:02:23.082Z,7.21
2016-04-10T05:03:23.022Z,7.25
2016-04-10T05:04:22.978Z,7.25
2016-04-10T05:05:22.918Z,7.32
2016-04-10T05:06:22.874Z,7.29
2016-04-10T05:07:22.814Z,7.32
2016-04-10T05:08:22.676Z,7.2
2016-04-10T05:09:22.694Z,7.17
2016-04-10T05:10:22.635Z,7.24
2016-04-10T05:11:22.591Z,7.21
2016-04-10T05:12:22.530Z,7.28
2016-04-10T05:13:22.487Z,7.25
2016-04-10T05:14:22.442Z,7.29
2016-04-10T05:15:22.383Z,7.31
2016-04-10T05:16:22.322Z,7.24
2016-04-10T05:17:22.263Z,7.2
2016-04-10T05:18:22.218Z,7.32
2016-04-10T05:19:22.160Z,7.28
2016-04-10T05:20:22.099Z,7.18
2016-04-10T05:21:22.039Z,7.35
2016-04-10T05:22:21.996Z,7.31
2016-04-10T05:23:22.123Z,7.29
2016-04-10T05:24:21.890Z,7.36
2016-04-10T05:25:21.832Z,7.31
2016-04-10T05:26:21.803Z,7.21
2016-04-10T05:27:21.727Z,7.15
2016-04-10T05:28:21.683Z,7.23
2016-04-10T05:29:21.607Z,7.2
2016-04-10T05:30:21.564Z,7.31
2016-04-10T05:31:21.534Z,7.21
2016-04-10T05:32:21.459Z,7.31
2016-04-10T05:33:21.400Z,7.31
2016-04-10T05:34:21.339Z,7.33
2016-04-10T05:35:21.312Z,7.43
2016-04-10T05:36:21.236Z,7.31
2016-04-10T05:37:21.175Z,7.4
2016-04-10T05:38:21.070Z,7.32
2016-04-10T05:39:21.088Z,7.35
2016-04-10T05:40:21.058Z,7.4
2016-04-10T05:41:20.969Z,7.36
2016-04-10T05:42:20.939Z,7.36
2016-04-10T05:43:20.880Z,7.35
2016-04-10T05:44:20.820Z,7.38
2016-04-10T05:45:20.775Z,7.43
2016-04-10T05:46:20.700Z,7.43
2016-04-10T05:47:20.640Z,7.45
2016-04-10T05:48:20.580Z,7.35
2016-04-10T05:49:20.536Z,7.45
2016-04-10T05:50:20.477Z,7.42
2016-04-10T05:51:20.433Z,7.45
2016-04-10T05:52:20.373Z,7.39
2016-04-10T05:53:20.329Z,7.42
2016-04-10T05:54:20.253Z,7.35
2016-04-10T05:55:20.209Z,7.47
2016-04-10T05:56:20.149Z,7.47
2016-04-10T05:57:20.104Z,7.35
2016-04-10T05:58:20.030Z,7.43
2016-04-10T05:59:19.985Z,7.45
2016-04-10T06:00:19.925Z,7.36
2016-04-10T06:01:19.881Z,7.29
2016-04-10T06:02:19.837Z,7.33
2016-04-10T06:03:19.777Z,7.4
2016-04-10T06:04:19.717Z,7.5
2016-04-10T06:05:18.939Z,7.57
2016-04-10T06:06:19.614Z,7.54
2016-04-10T06:07:19.569Z,7.54
2016-04-10T06:08:19.509Z,7.56
2016-04-10T06:09:19.465Z,7.56
2016-04-10T06:10:19.389Z,7.5
2016-04-10T06:11:19.330Z,7.48
2016-04-10T06:12:19.286Z,7.48
2016-04-10T06:13:19.225Z,7.43
2016-04-10T06:14:19.214Z,7.53
2016-04-10T06:15:19.153Z,7.56
2016-04-10T06:16:19.062Z,7.58
2016-04-10T06:17:19.033Z,7.6
2016-04-10T06:18:18.958Z,7.67
2016-04-10T06:19:18.898Z,7.57
2016-04-10T06:20:18.838Z,7.57
2016-04-10T06:21:18.794Z,7.57
2016-04-10T06:22:18.750Z,7.54
2016-04-10T06:23:20.037Z,7.57
2016-04-10T06:24:18.639Z,7.66
2016-04-10T06:25:18.569Z,7.69
2016-04-10T06:26:20.733Z,7.72
2016-04-10T06:27:18.350Z,7.72
2016-04-10T06:28:18.400Z,7.76
2016-04-10T06:29:18.574Z,7.7
2016-04-10T06:30:18.312Z,7.73
2016-04-10T06:31:18.252Z,7.76
2016-04-10T06:32:18.192Z,7.72
2016-04-10T06:33:18.132Z,7.82
2016-04-10T06:34:18.088Z,7.82
2016-04-10T06:35:18.029Z,7.85
2016-04-10T06:36:17.984Z,7.77
2016-04-10T06:37:17.924Z,7.77
2016-04-10T06:38:17.865Z,7.87
2016-04-10T06:39:17.820Z,7.82
2016-04-10T06:40:17.775Z,7.77
2016-04-10T06:41:17.717Z,7.75
2016-04-10T06:42:17.656Z,7.8
2016-04-10T06:43:17.612Z,7.75
2016-04-10T06:44:17.537Z,7.7
2016-04-10T06:45:17.477Z,7.82
2016-04-10T06:46:17.448Z,7.82
2016-04-10T06:47:17.389Z,7.75
2016-04-10T06:48:17.328Z,7.73
2016-04-10T06:49:17.269Z,7.77
2016-04-10T06:50:17.241Z,7.87
2016-04-10T06:51:17.197Z,7.8
2016-04-10T06:52:17.121Z,7.91
2016-04-10T06:53:17.061Z,7.97
2016-04-10T06:54:17.017Z,7.87
2016-04-10T06:55:16.941Z,7.98
2016-04-10T06:56:16.882Z,7.95
2016-04-10T06:57:16.837Z,7.97
2016-04-10T06:58:16.778Z,8.01
2016-04-10T06:59:16.749Z,8.03
2016-04-10T07:00:16.704Z,8.03
2016-04-10T07:01:16.646Z,7.77
2016-04-10T07:02:16.569Z,7.85
2016-04-10T07:03:16.509Z,7.87
2016-04-10T07:04:16.450Z,7.82
2016-04-10T07:05:16.407Z,7.83
2016-04-10T07:06:16.362Z,7.98
2016-04-10T07:07:16.301Z,7.94
2016-04-10T07:08:16.290Z,8.08
2016-04-10T07:09:16.198Z,8.03
2016-04-10T07:10:16.215Z,8.01
2016-04-10T07:11:16.109Z,8.08
2016-04-10T07:12:16.034Z,8.01
2016-04-10T07:13:15.973Z,8.12
2016-04-10T07:14:15.931Z,8.2
2016-04-10T07:15:15.901Z,8.2
2016-04-10T07:16:15.842Z,8.16
2016-04-10T07:17:15.797Z,8.15
2016-04-10T07:18:15.706Z,8.19
2016-04-10T07:19:15.678Z,8.2
2016-04-10T07:20:15.617Z,8.23
2016-04-10T07:21:15.558Z,8.24
2016-04-10T07:22:15.514Z,8.26
2016-04-10T07:23:15.469Z,8.23
2016-04-10T07:24:15.395Z,8.26
2016-04-10T07:25:15.366Z,8.31
2016-04-10T07:26:15.306Z,8.27
2016-04-10T07:27:15.230Z,8.3
2016-04-10T07:28:15.186Z,8.41
2016-04-10T07:29:15.127Z,8.48
2016-04-10T07:30:15.066Z,8.48
2016-04-10T07:31:15.054Z,8.37
2016-04-10T07:32:14.979Z,8.45
2016-04-10T07:33:14.918Z,8.53
2016-04-10T07:34:14.875Z,8.55
2016-04-10T07:35:14.799Z,8.63
2016-04-10T07:36:14.755Z,8.66
2016-04-10T07:37:14.554Z,8.67
2016-04-10T07:38:14.635Z,8.67
2016-04-10T07:39:14.590Z,8.78
2016-04-10T07:40:14.531Z,8.81
2016-04-10T07:41:14.486Z,8.87
2016-04-10T07:42:14.427Z,8.84
2016-04-10T07:43:14.414Z,8.89
2016-04-10T07:44:14.323Z,8.89
2016-04-10T07:45:14.279Z,8.66
2016-04-10T07:46:14.219Z,8.82
2016-04-10T07:47:14.159Z,8.81
2016-04-10T07:48:14.115Z,8.87
2016-04-10T07:49:14.071Z,8.56
2016-04-10T07:50:14.011Z,8.56
2016-04-10T07:51:13.950Z,8.67
2016-04-10T07:52:13.907Z,8.78
2016-04-10T07:53:13.847Z,8.67
2016-04-10T07:54:14.256Z,8.73
2016-04-10T07:55:13.744Z,8.79
2016-04-10T07:56:13.683Z,8.71
2016-04-10T07:57:13.639Z,8.63
2016-04-10T07:58:13.595Z,8.97
2016-04-10T07:59:13.519Z,8.94
2016-04-10T08:00:13.460Z,8.89
2016-04-10T08:01:13.416Z,8.94
2016-04-10T08:02:13.371Z,8.97
2016-04-10T08:03:13.328Z,8.97
2016-04-10T08:04:13.268Z,9.02
2016-04-10T08:05:13.208Z,9.13
2016-04-10T08:06:13.148Z,9.14
2016-04-10T08:07:13.104Z,9.18
2016-04-10T08:08:13.043Z,9.23
2016-04-10T08:09:12.999Z,9.26
2016-04-10T08:10:12.956Z,9.28
2016-04-10T08:11:12.895Z,9.31
2016-04-10T08:12:12.821Z,9.34
2016-04-10T08:13:12.776Z,9.37
2016-04-10T08:14:12.747Z,9.32
2016-04-10T08:15:12.673Z,9.47
2016-04-10T08:16:12.628Z,9.32
2016-04-10T08:17:12.567Z,9.46
2016-04-10T08:18:12.508Z,9.39
2016-04-10T08:19:12.464Z,9.41
2016-04-10T08:20:12.404Z,9.5
2016-04-10T08:21:12.376Z,9.56
2016-04-10T08:22:12.300Z,9.58
2016-04-10T08:23:12.256Z,9.68
2016-04-10T08:24:12.211Z,9.91
2016-04-10T08:25:12.152Z,9.99
2016-04-10T08:26:12.091Z,10.04
2016-04-10T08:27:12.048Z,9.98
2016-04-10T08:28:11.972Z,10.1
2016-04-10T08:29:11.928Z,10.01
2016-04-10T08:30:11.900Z,9.94
2016-04-10T08:31:11.840Z,10.07
2016-04-10T08:32:11.780Z,10.02
2016-04-10T08:33:11.752Z,9.84
2016-04-10T08:34:11.676Z,9.95
2016-04-10T08:35:11.632Z,10.22
2016-04-10T08:36:11.572Z,10.28
2016-04-10T08:37:11.356Z,10.41
2016-04-10T08:38:11.469Z,10.41
2016-04-10T08:39:11.424Z,10.35
2016-04-10T08:40:11.332Z,9.69
2016-04-10T08:41:11.290Z,9.98
2016-04-10T08:42:11.245Z,10.22
2016-04-10T08:43:11.200Z,10.49
2016-04-10T08:44:11.141Z,10.59
2016-04-10T08:45:11.081Z,10.59
2016-04-10T08:46:11.037Z,10.82
2016-04-10T08:47:10.993Z,10.93
2016-04-10T08:48:10.917Z,10.97
2016-04-10T08:49:10.872Z,11.23
2016-04-10T08:50:10.814Z,11.29
2016-04-10T08:51:10.784Z,11.32
2016-04-10T08:52:10.724Z,11.43
2016-04-10T08:53:10.696Z,11.29
2016-04-10T08:54:10.839Z,11.54
2016-04-10T08:55:10.405Z,11.83
2016-04-10T08:56:10.516Z,11.78
2016-04-10T08:57:10.473Z,11.73
2016-04-10T08:58:10.397Z,12.13
2016-04-10T08:59:10.352Z,12.25
2016-04-10T09:00:10.309Z,12.53
2016-04-10T09:01:10.264Z,12.75
2016-04-10T09:02:10.205Z,12.93
2016-04-10T09:03:10.160Z,12.91
2016-04-10T09:04:10.101Z,13.23
2016-04-10T09:05:10.057Z,13.23
2016-04-10T09:06:09.981Z,13.38
2016-04-10T09:07:09.937Z,13.39
2016-04-10T09:08:09.908Z,13.56
2016-04-10T09:09:09.910Z,13.65
2016-04-10T09:10:09.789Z,13.63
2016-04-10T09:11:09.745Z,13.57
2016-04-10T09:12:09.684Z,13.75
2016-04-10T09:13:09.640Z,13.87
2016-04-10T09:14:09.596Z,13.89
2016-04-10T09:15:09.537Z,14.18
2016-04-10T09:16:09.476Z,14.37
2016-04-10T09:17:09.464Z,14.51
2016-04-10T09:18:09.373Z,14.37
2016-04-10T09:19:09.328Z,14.53
2016-04-10T09:20:09.284Z,14.63
2016-04-10T09:21:09.239Z,14.85
2016-04-10T09:22:09.181Z,14.7
2016-04-10T09:23:09.120Z,14.91
2016-04-10T09:24:09.373Z,14.72
2016-04-10T09:25:09.033Z,14.63
2016-04-10T09:26:08.972Z,14.62
2016-04-10T09:27:08.928Z,14.77
2016-04-10T09:28:08.868Z,14.63
2016-04-10T09:29:08.824Z,14.92
2016-04-10T09:30:08.796Z,14.97
2016-04-10T09:31:08.720Z,14.94
2016-04-10T09:32:08.660Z,14.86
2016-04-10T09:33:08.632Z,14.84
2016-04-10T09:34:08.557Z,15
2016-04-10T09:35:08.527Z,15.09
2016-04-10T09:36:08.468Z,14.97
2016-04-10T09:37:08.424Z,15
2016-04-10T09:38:08.380Z,15.09
2016-04-10T09:39:08.788Z,14.72
2016-04-10T09:40:08.276Z,14.65
2016-04-10T09:41:08.216Z,14.72
2016-04-10T09:42:08.171Z,15.1
2016-04-10T09:43:08.174Z,15.17
2016-04-10T09:44:08.115Z,15.43
2016-04-10T09:45:08.023Z,15.52
2016-04-10T09:46:07.964Z,15.64
2016-04-10T09:47:07.951Z,15.72
2016-04-10T09:48:07.890Z,15.8
2016-04-10T09:49:07.847Z,15.58
2016-04-10T09:50:07.771Z,15.55
2016-04-10T09:51:07.728Z,15.51
2016-04-10T09:52:07.698Z,15.62
2016-04-10T09:53:07.639Z,15.97
2016-04-10T09:54:07.485Z,15.8
2016-04-10T09:55:07.534Z,15.76
2016-04-10T09:56:07.491Z,15.72
2016-04-10T09:57:07.447Z,15.65
2016-04-10T09:58:07.387Z,15.82
2016-04-10T09:59:07.327Z,15.88
2016-04-10T10:00:07.314Z,15.58
2016-04-10T10:01:07.222Z,15.35
2016-04-10T10:02:07.194Z,15.59
2016-04-10T10:03:07.150Z,15.59
2016-04-10T10:04:07.090Z,16.02
2016-04-10T10:05:07.061Z,15.86
2016-04-10T10:06:07.002Z,15.7
2016-04-10T10:07:06.974Z,15.7
2016-04-10T10:08:06.758Z,16
2016-04-10T10:09:06.858Z,16.13
2016-04-10T10:10:06.798Z,16.24
2016-04-10T10:11:06.739Z,16.49
2016-04-10T10:12:06.724Z,16.89
2016-04-10T10:13:06.722Z,16.56
2016-04-10T10:14:06.703Z,16.5
2016-04-10T10:15:06.717Z,16.89
2016-04-10T10:16:06.684Z,16.58
2016-04-10T10:17:06.679Z,16.74
2016-04-10T10:18:06.634Z,16.89
2016-04-10T10:19:06.605Z,16.57
2016-04-10T10:20:06.561Z,15.83
2016-04-10T10:21:06.563Z,16.33
2016-04-10T10:22:06.497Z,16.83
2016-04-10T10:23:06.474Z,16.83
2016-04-10T10:24:06.435Z,17.01
2016-04-10T10:25:05.646Z,17.2
2016-04-10T10:26:06.326Z,16.99
2016-04-10T10:27:06.300Z,16.66
2016-04-10T10:28:06.227Z,16.72
2016-04-10T10:29:06.185Z,16.93
2016-04-10T10:30:06.142Z,16.86
2016-04-10T10:31:06.084Z,16.79
2016-04-10T10:32:06.057Z,17.01
2016-04-10T10:33:05.999Z,16.66
2016-04-10T10:34:05.986Z,17.11
2016-04-10T10:35:05.895Z,17.33
2016-04-10T10:36:05.868Z,17.16
2016-04-10T10:37:05.808Z,17.23
2016-04-10T10:38:05.765Z,17.33
2016-04-10T10:39:05.721Z,16.87
2016-04-10T10:40:05.708Z,17.09
2016-04-10T10:41:05.617Z,17.08
2016-04-10T10:42:05.573Z,17.38
2016-04-10T10:43:05.529Z,17.6
2016-04-10T10:44:05.485Z,17.83
2016-04-10T10:45:05.441Z,17.65
2016-04-10T10:46:05.381Z,17.67
2016-04-10T10:47:05.181Z,17.42
2016-04-10T10:48:05.277Z,17.6
2016-04-10T10:49:05.233Z,17.89
2016-04-10T10:50:05.188Z,17.67
2016-04-10T10:51:05.160Z,17.57
2016-04-10T10:52:05.085Z,17.79
2016-04-10T10:53:05.040Z,17.98
2016-04-10T10:54:04.980Z,18.23
2016-04-10T10:55:04.936Z,18.37
2016-04-10T10:56:04.892Z,18.31
2016-04-10T10:57:04.863Z,18.11
2016-04-10T10:58:04.787Z,18.07
2016-04-10T10:59:04.618Z,18
2016-04-10T11:00:04.715Z,18.13
2016-04-10T11:01:04.671Z,18.22
2016-04-10T11:02:04.627Z,18.2
2016-04-10T11:03:04.567Z,18.07
2016-04-10T11:04:04.539Z,18.38
2016-04-10T11:05:04.479Z,18.65
2016-04-10T11:06:04.434Z,17.8
2016-04-10T11:07:04.390Z,18.15
2016-04-10T11:08:04.331Z,18.08
2016-04-10T11:09:04.303Z,18.25
2016-04-10T11:10:04.228Z,18.2
2016-04-10T11:11:04.183Z,18.43
2016-04-10T11:12:04.170Z,18.5
2016-04-10T11:13:04.111Z,18.29
2016-04-10T11:14:04.050Z,18.29
2016-04-10T11:15:04.006Z,18.44
2016-04-10T11:16:03.946Z,18.43
2016-04-10T11:17:03.917Z,18.16
2016-04-10T11:18:03.858Z,18.49
2016-04-10T11:19:03.829Z,18.34
2016-04-10T11:20:03.754Z,18.75
2016-04-10T11:21:03.709Z,18.81
2016-04-10T11:22:03.680Z,18.78
2016-04-10T11:23:03.621Z,18.55
2016-04-10T11:24:03.577Z,18.75
2016-04-10T11:25:03.518Z,18.83
2016-04-10T11:26:03.473Z,18.83
2016-04-10T11:27:03.413Z,18.95
2016-04-10T11:28:03.400Z,18.49
2016-04-10T11:29:03.324Z,18.45
2016-04-10T11:30:03.281Z,18.71
2016-04-10T11:31:03.251Z,18.73
2016-04-10T11:32:03.192Z,18.19
2016-04-10T11:33:03.131Z,18.23
2016-04-10T11:34:03.119Z,18.44
2016-04-10T11:35:03.044Z,18.38
2016-04-10T11:36:03.000Z,18.34
2016-04-10T11:37:02.955Z,18.01
2016-04-10T11:38:02.896Z,18.4
2016-04-10T11:39:02.867Z,18.15
2016-04-10T11:40:02.808Z,18.4
2016-04-10T11:41:02.764Z,18.22
2016-04-10T11:42:02.703Z,18.55
2016-04-10T11:43:02.691Z,18.5
2016-04-10T11:44:02.630Z,18.68
2016-04-10T11:45:02.586Z,18.81
2016-04-10T11:46:02.542Z,19.14
2016-04-10T11:47:02.514Z,18.86
2016-04-10T11:48:02.439Z,18.95
2016-04-10T11:49:02.378Z,18.98
2016-04-10T11:50:02.335Z,19.04
2016-04-10T11:51:02.291Z,18.86
2016-04-10T11:52:02.246Z,19.29
2016-04-10T11:53:02.218Z,19.27
2016-04-10T11:54:02.157Z,18.84
2016-04-10T11:55:02.113Z,19.09
2016-04-10T11:56:02.069Z,19.58
2016-04-10T11:57:02.009Z,19.15
2016-04-10T11:58:01.965Z,19.74
2016-04-10T11:59:01.937Z,19.67
2016-04-10T12:00:01.876Z,19.88
2016-04-10T12:01:01.832Z,19.95
2016-04-10T12:02:01.820Z,19.86
2016-04-10T12:03:01.745Z,19.86
2016-04-10T12:04:01.716Z,19.24
2016-04-10T12:05:01.640Z,19.31
2016-04-10T12:06:01.581Z,19.39
2016-04-10T12:07:01.551Z,19.48
2016-04-10T12:08:01.492Z,19.49
2016-04-10T12:09:01.464Z,18.9
2016-04-10T12:10:01.419Z,19.22
2016-04-10T12:11:01.359Z,18.8
2016-04-10T12:12:01.299Z,19.27
2016-04-10T12:13:01.271Z,19.62
2016-04-10T12:14:01.211Z,19.92
2016-04-10T12:15:01.166Z,20.11
2016-04-10T12:16:01.139Z,19.21
2016-04-10T12:17:01.078Z,19.47
2016-04-10T12:18:01.019Z,19.63
2016-04-10T12:19:00.991Z,19.12
2016-04-10T12:20:00.977Z,18.93
2016-04-10T12:21:00.902Z,19.22
2016-04-10T12:22:00.841Z,19.62
2016-04-10T12:23:00.799Z,19.96
2016-04-10T12:24:00.754Z,20.18
2016-04-10T12:25:00.929Z,19.94
2016-04-10T12:26:00.682Z,19.96
2016-04-10T12:27:00.622Z,19.55
2016-04-10T12:28:00.562Z,19.52
2016-04-10T12:29:00.533Z,19.59
2016-04-10T12:30:00.489Z,19.77
2016-04-10T12:31:00.445Z,19.91
2016-04-10T12:32:00.369Z,19.85
2016-04-10T12:33:00.340Z,19.58
2016-04-10T12:34:00.296Z,19.12
2016-04-10T12:35:00.236Z,18.84
2016-04-10T12:36:00.208Z,18.19
2016-04-10T12:37:00.148Z,18.9
2016-04-10T12:38:00.088Z,18.66
2016-04-10T12:39:00.059Z,18.83
2016-04-10T12:39:59.890Z,18.8
2016-04-10T12:40:59.940Z,18.38
2016-04-10T12:41:59.912Z,18.28
2016-04-10T12:42:59.867Z,18.1
2016-04-10T12:43:59.823Z,17.8
2016-04-10T12:44:59.778Z,18.13
2016-04-10T12:45:59.719Z,17.76
2016-04-10T12:46:59.659Z,18.08
2016-04-10T12:47:59.615Z,18.18
2016-04-10T12:48:59.586Z,18.05
2016-04-10T12:49:59.541Z,17.72
2016-04-10T12:50:59.482Z,17.89
2016-04-10T12:51:59.438Z,17.44
2016-04-10T12:52:59.410Z,17.31
2016-04-10T12:53:59.335Z,17.44
2016-04-10T12:54:59.306Z,17.39
2016-04-10T12:55:59.230Z,17.22
2016-04-10T12:56:59.202Z,16.91
2016-04-10T12:57:59.143Z,17.02
2016-04-10T12:58:59.113Z,17.48
2016-04-10T12:59:59.054Z,17.41
2016-04-10T13:00:58.259Z,17.22
2016-04-10T13:01:58.965Z,17.2
2016-04-10T13:02:58.906Z,17.26
2016-04-10T13:03:59.017Z,17.63
2016-04-10T13:04:58.818Z,17.59
2016-04-10T13:05:58.773Z,17.7
2016-04-10T13:06:58.745Z,17.67
2016-04-10T13:07:58.670Z,17.63
2016-04-10T13:08:58.640Z,17.63
2016-04-10T13:09:58.659Z,17.63
2016-04-10T13:10:58.520Z,17.36
2016-04-10T13:11:58.492Z,17.57